createdAt,value
2023-02-15T01:26:11.022Z,99.90
2023-02-15T11:09:45.655Z,99.90
2023-02-15T11:20:05.499Z,99.90
2023-02-15T11:40:04.937Z,99.90
2023-02-15T11:42:33.694Z,95.80
2023-02-15T12:38:04.349Z,95.40
2023-02-15T12:42:59.243Z,86.90
2023-02-15T12:48:15.104Z,84.00
2023-02-15T12:50:43.396Z,83.70
2023-02-15T12:53:23.988Z,81.50
2023-02-15T12:56:02.246Z,81.60
2023-02-15T12:58:31.277Z,81.80
2023-02-15T13:01:09.840Z,78.90
2023-02-15T13:03:39.524Z,79.10
2023-02-15T13:06:09.499Z,77.80
2023-02-15T13:08:59.868Z,75.90
2023-02-15T13:11:34.898Z,76.10
2023-02-15T13:14:03.940Z,74.10
2023-02-15T13:16:36.048Z,71.90
2023-02-15T13:19:18.623Z,70.70
2023-02-15T13:21:48.814Z,69.70
2023-02-15T13:24:45.513Z,71.00
2023-02-15T13:27:17.180Z,72.00
2023-02-15T13:29:53.945Z,70.70
2023-02-15T13:32:26.573Z,70.10
2023-02-15T13:34:58.214Z,70.70
2023-02-15T13:37:31.051Z,70.10
2023-02-15T13:40:24.974Z,68.20
2023-02-15T13:43:41.559Z,66.70
2023-02-15T13:46:22.193Z,67.40
2023-02-15T13:49:10.807Z,67.90
2023-02-15T13:51:52.434Z,64.90
2023-02-15T13:54:30.034Z,65.90
2023-02-15T13:57:06.000Z,65.50
2023-02-15T13:59:57.070Z,64.80
2023-02-15T14:03:01.028Z,65.20
2023-02-15T14:05:48.332Z,64.80
2023-02-15T14:08:27.770Z,63.80
2023-02-15T14:11:04.422Z,64.00
2023-02-15T14:14:01.840Z,64.30
2023-02-15T14:17:06.293Z,63.50
2023-02-15T14:19:51.028Z,63.30
2023-02-15T14:22:39.063Z,61.00
2023-02-15T14:25:18.325Z,63.10
2023-02-15T14:27:55.122Z,64.90
2023-02-15T14:30:27.573Z,65.90
2023-02-15T14:32:59.265Z,67.10
2023-02-15T14:35:29.157Z,68.30
2023-02-15T14:38:14.154Z,67.30
2023-02-15T14:41:02.846Z,67.90
2023-02-15T14:43:59.495Z,69.60
2023-02-15T14:46:35.225Z,69.00
2023-02-15T14:49:17.676Z,69.40
2023-02-15T14:51:44.655Z,70.30
2023-02-15T14:54:33.988Z,69.60
2023-02-15T14:57:03.815Z,69.20
2023-02-15T14:59:39.940Z,71.00
2023-02-15T15:02:09.711Z,71.00
2023-02-15T15:04:57.909Z,72.30
2023-02-15T15:07:27.772Z,72.80
2023-02-15T15:10:02.686Z,73.40
2023-02-15T15:12:35.212Z,74.00
2023-02-15T15:15:02.271Z,74.50
2023-02-15T15:17:39.126Z,74.90
2023-02-15T15:20:35.003Z,75.60
2023-02-15T15:23:16.725Z,75.90
2023-02-15T15:25:45.807Z,75.80
2023-02-15T15:28:35.646Z,75.50
2023-02-15T15:31:08.586Z,76.20
2023-02-15T15:33:57.287Z,77.00
2023-02-15T15:36:42.851Z,76.80
2023-02-15T15:39:37.336Z,78.20
2023-02-15T15:42:22.612Z,78.70
2023-02-15T16:53:08.275Z,79.70
2023-02-15T16:55:44.338Z,90.40
2023-02-15T16:58:17.713Z,90.60
2023-02-15T17:00:45.763Z,90.70
2023-02-15T17:03:15.526Z,90.90
2023-02-15T17:05:55.043Z,91.10
2023-02-15T17:08:44.845Z,91.30
2023-02-15T17:11:20.221Z,91.30
2023-02-15T17:14:05.851Z,91.50
2023-02-15T17:16:50.128Z,91.60
2023-02-15T17:19:17.237Z,91.70
2023-02-15T17:22:02.393Z,92.10
2023-02-15T17:24:32.279Z,92.20
2023-02-15T17:27:31.983Z,92.30
2023-02-15T21:12:42.844Z,92.70
2023-02-15T21:15:48.751Z,99.90
2023-02-15T21:18:35.340Z,99.90
2023-02-15T21:21:05.322Z,99.90
2023-02-15T21:36:23.330Z,99.90
2023-02-15T21:38:51.181Z,99.90
2023-02-15T23:35:00.700Z,99.90
